LEPP

Pamplona Airport

Airport
ICAO code
LEPP
IATA Code
PNA
Summary
ICAO Region
EUR
ICAO Territory
Location

,

Serving
Pamplona
Elevation
1504 ft
Coordinates
42° 46' 12" N , 1° 38' 47" W
Metar
LEPP 112100Z 00000KT CAVOK 10/07 Q1019

Runways

Designator Length Width Surface Rops
15/33 0 0 UNK Yes/Yes
16/34 2207 45 ASP Yes/Yes

Airport map

Aerial View

SKYbrary Partners:

Safety knowledge contributed by: